createdAt,value
2023-01-21T00:01:10.223Z,1.00
2023-01-21T00:03:38.061Z,1.00
2023-01-21T00:06:05.921Z,1.00
2023-01-21T00:08:33.215Z,1.00
2023-01-21T00:11:14.551Z,1.00
2023-01-21T00:13:43.460Z,1.00
2023-01-21T00:16:12.036Z,0.90
2023-01-21T00:18:39.179Z,1.00
2023-01-21T00:21:06.390Z,1.00
2023-01-21T00:23:33.597Z,1.00
2023-01-21T00:26:05.941Z,1.00
2023-01-21T00:28:35.650Z,0.90
2023-01-21T00:31:06.634Z,1.00
2023-01-21T00:33:34.775Z,1.00
2023-01-21T00:36:14.333Z,1.00
2023-01-21T00:38:41.545Z,1.00
2023-01-21T00:41:13.697Z,1.00
2023-01-21T00:43:44.385Z,1.00
2023-01-21T00:46:11.929Z,0.90
2023-01-21T00:48:40.448Z,1.00
2023-01-21T00:51:08.011Z,1.00
2023-01-21T00:53:38.361Z,0.90
2023-01-21T00:56:08.463Z,0.90
2023-01-21T00:58:36.448Z,1.00
2023-01-21T01:01:08.078Z,1.00
2023-01-21T01:03:36.762Z,0.90
2023-01-21T01:06:07.513Z,1.00
2023-01-21T01:08:34.692Z,1.00
2023-01-21T01:11:02.541Z,0.90
2023-01-21T01:13:30.521Z,1.00
2023-01-21T01:15:58.774Z,0.90
2023-01-21T01:18:27.514Z,1.00
2023-01-21T01:20:54.700Z,1.00
2023-01-21T01:23:22.070Z,1.00
2023-01-21T01:26:07.203Z,1.00
2023-01-21T01:28:34.862Z,0.90
2023-01-21T01:31:06.277Z,0.90
2023-01-21T01:33:34.272Z,0.90
2023-01-21T01:36:08.779Z,0.90
2023-01-21T01:38:39.451Z,0.90
2023-01-21T01:41:07.239Z,0.90
2023-01-21T01:43:54.369Z,0.80
2023-01-21T01:46:23.697Z,0.90
2023-01-21T01:49:13.433Z,0.90
2023-01-21T01:51:58.943Z,0.90
2023-01-21T01:54:36.622Z,0.90
2023-01-21T01:57:09.040Z,0.90
2023-01-21T01:59:36.918Z,0.90
2023-01-21T02:02:14.102Z,0.90
2023-01-21T02:05:08.278Z,0.90
2023-01-21T02:07:44.495Z,0.90
2023-01-21T02:10:15.187Z,0.90
2023-01-21T02:12:44.112Z,0.90
2023-01-21T02:15:12.245Z,0.90
2023-01-21T02:18:02.930Z,0.90
2023-01-21T02:20:41.715Z,0.90
2023-01-21T02:23:27.213Z,0.90
2023-01-21T02:26:25.296Z,0.80
2023-01-21T02:29:41.153Z,0.80
2023-01-21T02:33:03.806Z,0.80
2023-01-21T02:36:04.547Z,0.80
2023-01-21T02:38:45.991Z,0.80
2023-01-21T02:41:36.776Z,0.80
2023-01-21T02:44:21.190Z,0.80
2023-01-21T02:47:33.268Z,0.80
2023-01-21T02:50:16.240Z,0.80
2023-01-21T02:52:43.439Z,0.80
2023-01-21T02:55:16.757Z,0.80
2023-01-21T02:57:54.873Z,0.80
2023-01-21T03:00:37.417Z,0.80
2023-01-21T03:03:34.936Z,0.90
2023-01-21T03:06:49.014Z,0.90
2023-01-21T03:09:25.263Z,0.80
2023-01-21T03:12:30.580Z,0.90
2023-01-21T03:15:42.906Z,0.90
2023-01-21T03:18:31.172Z,0.80
2023-01-21T03:21:08.984Z,0.80
2023-01-21T03:23:41.394Z,0.90
2023-01-21T03:26:12.415Z,0.90
2023-01-21T03:28:48.903Z,0.80
2023-01-21T03:31:25.778Z,0.80
2023-01-21T03:33:56.472Z,0.90
2023-01-21T03:36:40.703Z,0.90
2023-01-21T03:39:40.773Z,0.80
2023-01-21T03:42:09.281Z,0.90
2023-01-21T03:44:38.411Z,0.90
2023-01-21T03:47:35.604Z,0.80
2023-01-21T03:50:26.109Z,0.80
2023-01-21T03:52:53.503Z,0.80
2023-01-21T03:55:21.592Z,0.90
2023-01-21T03:57:48.731Z,0.90
2023-01-21T04:00:16.933Z,0.90
2023-01-21T04:02:44.485Z,0.90
2023-01-21T04:05:11.735Z,0.90
2023-01-21T04:07:38.846Z,0.90
2023-01-21T04:10:09.913Z,0.90
2023-01-21T04:12:37.102Z,0.90
2023-01-21T04:15:05.647Z,0.90
2023-01-21T04:17:36.226Z,0.90
2023-01-21T04:20:03.630Z,0.90
2023-01-21T04:22:30.775Z,0.90
2023-01-21T04:24:57.901Z,0.90
2023-01-21T04:27:28.482Z,0.90
2023-01-21T04:29:55.532Z,0.90
2023-01-21T04:32:22.876Z,0.90
2023-01-21T04:34:50.025Z,0.90
2023-01-21T04:37:17.249Z,0.90
2023-01-21T04:39:44.357Z,1.00
2023-01-21T04:42:11.553Z,0.90
2023-01-21T04:44:38.712Z,0.90
2023-01-21T04:47:05.855Z,0.90
2023-01-21T04:49:32.963Z,0.90
2023-01-21T04:52:00.064Z,0.90
2023-01-21T04:54:27.151Z,0.90
2023-01-21T04:56:54.263Z,0.90
2023-01-21T04:59:21.513Z,0.90
2023-01-21T05:01:48.595Z,0.90
2023-01-21T05:04:15.880Z,0.90
2023-01-21T05:06:43.175Z,0.90
2023-01-21T05:09:10.292Z,0.90
2023-01-21T05:11:37.628Z,0.90
2023-01-21T05:14:04.871Z,0.90
2023-01-21T05:16:31.997Z,0.90
2023-01-21T05:18:59.190Z,0.90
2023-01-21T05:21:26.419Z,0.90
2023-01-21T05:23:53.587Z,0.80
2023-01-21T05:26:20.714Z,0.90
2023-01-21T05:28:47.867Z,0.90
2023-01-21T05:31:15.055Z,0.90
2023-01-21T05:33:44.093Z,0.90
2023-01-21T05:36:11.260Z,0.80
2023-01-21T05:38:38.537Z,0.80
2023-01-21T05:41:05.935Z,0.80
2023-01-21T05:43:33.318Z,0.80
2023-01-21T05:46:01.161Z,0.80
2023-01-21T05:48:29.605Z,0.80
2023-01-21T05:50:58.478Z,0.80
2023-01-21T05:53:26.643Z,0.80
2023-01-21T05:55:55.420Z,0.90
2023-01-21T05:58:26.053Z,0.90
2023-01-21T06:00:58.643Z,0.80
2023-01-21T06:03:26.510Z,0.80
2023-01-21T06:05:53.944Z,0.80
2023-01-21T06:08:21.535Z,0.80
2023-01-21T06:10:48.698Z,0.80
2023-01-21T06:13:16.732Z,0.80
2023-01-21T06:15:43.917Z,0.70
2023-01-21T06:18:11.168Z,0.80
2023-01-21T06:20:38.372Z,0.80
2023-01-21T06:23:05.687Z,0.80
2023-01-21T06:25:33.636Z,0.80
2023-01-21T06:28:01.376Z,0.80
2023-01-21T06:30:28.756Z,0.80
2023-01-21T06:32:56.006Z,0.80
2023-01-21T06:35:23.744Z,0.80
2023-01-21T06:37:50.940Z,0.80
2023-01-21T06:40:18.554Z,0.90
2023-01-21T06:42:47.731Z,0.90
2023-01-21T06:45:16.009Z,0.90
2023-01-21T06:47:44.876Z,0.90
2023-01-21T06:50:15.717Z,0.80
2023-01-21T06:52:45.811Z,0.80
2023-01-21T06:55:14.415Z,0.80
2023-01-21T06:57:42.489Z,0.80
2023-01-21T07:00:11.977Z,0.80
2023-01-21T07:02:39.151Z,0.80
2023-01-21T07:05:07.171Z,0.80
2023-01-21T07:07:34.326Z,0.80
2023-01-21T07:10:05.291Z,0.80
2023-01-21T07:12:32.433Z,0.80
2023-01-21T07:14:59.579Z,0.90
2023-01-21T07:17:26.976Z,0.80
2023-01-21T07:19:54.108Z,0.90
2023-01-21T07:22:21.403Z,0.90
2023-01-21T07:24:48.781Z,0.90
2023-01-21T07:27:16.269Z,0.90
2023-01-21T07:29:43.702Z,0.90
2023-01-21T07:32:10.865Z,0.90
2023-01-21T07:34:38.018Z,0.90
2023-01-21T07:37:05.241Z,1.00
2023-01-21T07:39:32.455Z,1.00
2023-01-21T07:41:59.638Z,1.00
2023-01-21T07:44:27.024Z,1.00
2023-01-21T07:46:54.246Z,1.00
2023-01-21T07:49:21.525Z,1.00
2023-01-21T07:51:49.001Z,1.00
2023-01-21T07:54:16.351Z,1.00
2023-01-21T07:56:46.572Z,1.00
2023-01-21T07:59:14.165Z,1.00
2023-01-21T08:01:41.727Z,1.00
2023-01-21T08:04:09.890Z,1.00
2023-01-21T08:06:38.032Z,1.00
2023-01-21T08:09:05.419Z,1.10
2023-01-21T08:11:32.675Z,1.10
2023-01-21T08:13:59.844Z,1.10
2023-01-21T08:16:27.349Z,1.10
2023-01-21T08:18:54.697Z,1.20
2023-01-21T08:21:22.009Z,1.10
2023-01-21T08:23:49.099Z,1.10
2023-01-21T08:26:16.327Z,1.10
2023-01-21T08:28:43.555Z,1.30
2023-01-21T08:31:13.336Z,1.20
2023-01-21T08:33:40.696Z,1.30
2023-01-21T08:36:08.960Z,1.20
2023-01-21T08:38:36.886Z,1.30
2023-01-21T08:41:04.453Z,1.30
2023-01-21T08:43:31.572Z,1.30
2023-01-21T08:46:01.567Z,1.30
2023-01-21T08:48:30.037Z,1.30
2023-01-21T08:51:00.933Z,1.40
2023-01-21T08:53:28.280Z,1.30
2023-01-21T08:56:05.373Z,1.30
2023-01-21T08:58:33.432Z,1.30
2023-01-21T09:01:09.115Z,1.30
2023-01-21T09:03:37.204Z,1.30
2023-01-21T09:06:06.155Z,1.30
2023-01-21T09:08:33.470Z,1.30
2023-01-21T09:11:02.364Z,1.30
2023-01-21T09:13:33.591Z,1.30
2023-01-21T09:16:01.445Z,1.30
2023-01-21T09:18:28.841Z,1.30
2023-01-21T09:21:01.897Z,1.30
2023-01-21T09:23:32.213Z,1.30
2023-01-21T09:26:08.588Z,1.30
2023-01-21T09:28:38.801Z,1.20
2023-01-21T09:31:10.121Z,1.30
2023-01-21T09:33:40.677Z,1.30
2023-01-21T09:36:12.548Z,1.30
2023-01-21T09:38:43.241Z,1.30
2023-01-21T09:41:39.505Z,1.50
2023-01-21T09:44:27.391Z,1.50
2023-01-21T09:47:26.861Z,1.60
2023-01-21T09:50:26.272Z,1.60
2023-01-21T09:53:00.027Z,1.70
2023-01-21T09:55:47.662Z,1.70
2023-01-21T09:58:42.184Z,1.80
2023-01-21T10:01:29.078Z,1.80
2023-01-21T10:04:03.419Z,1.80
2023-01-21T10:06:39.381Z,1.90
2023-01-21T10:09:30.852Z,2.00
2023-01-21T10:12:10.499Z,2.00
2023-01-21T10:14:55.100Z,1.90
2023-01-21T10:17:34.535Z,1.90
2023-01-21T10:20:23.881Z,2.00
2023-01-21T10:23:35.875Z,2.00
2023-01-21T10:26:08.761Z,2.00
2023-01-21T10:28:41.906Z,2.00
2023-01-21T10:31:28.936Z,2.00
2023-01-21T10:33:56.726Z,2.00
2023-01-21T10:36:35.139Z,2.10
2023-01-21T10:39:14.427Z,2.10
2023-01-21T10:42:13.080Z,2.20
2023-01-21T10:45:27.736Z,2.20
2023-01-21T10:48:28.854Z,2.20
2023-01-21T10:51:10.334Z,2.20
2023-01-21T10:53:57.593Z,2.20
2023-01-21T10:56:37.213Z,2.20
2023-01-21T10:59:13.840Z,2.20
2023-01-21T11:01:47.394Z,2.10
2023-01-21T11:04:28.123Z,2.10
2023-01-21T11:07:05.568Z,2.10
2023-01-21T11:09:38.597Z,2.00
2023-01-21T11:12:06.113Z,2.10
2023-01-21T11:14:34.644Z,2.00
2023-01-21T11:17:02.095Z,2.00
2023-01-21T11:19:31.338Z,1.90
2023-01-21T11:22:05.591Z,1.90
2023-01-21T11:24:52.750Z,1.90
2023-01-21T11:27:22.228Z,1.90
2023-01-21T11:29:51.036Z,1.90
2023-01-21T11:32:27.702Z,1.90
2023-01-21T11:35:15.798Z,1.80
2023-01-21T11:37:45.876Z,1.80
2023-01-21T11:40:22.217Z,1.90
2023-01-21T11:42:53.481Z,1.90
2023-01-21T11:45:37.090Z,1.90
2023-01-21T11:48:22.734Z,1.90
2023-01-21T11:50:50.061Z,1.90
2023-01-21T11:53:19.394Z,1.90
2023-01-21T11:55:57.175Z,1.90
2023-01-21T11:58:39.540Z,1.90
2023-01-21T12:01:20.522Z,1.90
2023-01-21T12:04:00.043Z,1.90
2023-01-21T12:06:30.819Z,1.90
2023-01-21T12:09:03.949Z,1.90
2023-01-21T12:11:32.793Z,1.90
2023-01-21T12:14:27.632Z,1.90
2023-01-21T12:17:31.435Z,1.90
2023-01-21T12:20:28.361Z,1.90
2023-01-21T12:23:20.491Z,1.90
2023-01-21T12:26:18.786Z,1.90
2023-01-21T12:28:55.042Z,2.00
2023-01-21T12:31:51.189Z,2.00
2023-01-21T12:34:49.718Z,2.00
2023-01-21T12:37:31.320Z,2.00
2023-01-21T12:40:05.707Z,2.00
2023-01-21T12:42:38.450Z,2.00
2023-01-21T12:45:21.984Z,2.00
2023-01-21T12:48:12.646Z,2.00
2023-01-21T12:50:45.520Z,2.00
2023-01-21T12:53:39.234Z,2.00
2023-01-21T12:56:29.122Z,2.00
2023-01-21T12:59:25.209Z,2.00
2023-01-21T13:02:05.820Z,2.00
2023-01-21T13:05:20.746Z,2.00
2023-01-21T13:08:38.760Z,2.00
2023-01-21T13:11:43.445Z,2.00
2023-01-21T13:14:10.498Z,2.00
2023-01-21T13:16:48.572Z,2.00
2023-01-21T13:19:16.622Z,2.00
2023-01-21T13:22:01.683Z,2.00
2023-01-21T13:25:05.479Z,2.00
2023-01-21T13:28:24.698Z,2.00
2023-01-21T13:31:12.591Z,2.00
2023-01-21T13:34:21.080Z,2.00
2023-01-21T13:36:52.101Z,1.90
2023-01-21T13:39:47.004Z,1.90
2023-01-21T13:42:44.468Z,1.90
2023-01-21T13:45:28.913Z,1.90
2023-01-21T13:48:53.142Z,1.90
2023-01-21T13:51:36.748Z,1.90
2023-01-21T13:54:25.289Z,1.90
2023-01-21T13:57:20.909Z,1.90
2023-01-21T14:00:04.819Z,2.00
2023-01-21T14:03:12.946Z,1.90
2023-01-21T14:05:52.799Z,1.90
2023-01-21T14:08:48.567Z,1.90
2023-01-21T14:11:24.171Z,1.90
2023-01-21T14:14:24.253Z,1.80
2023-01-21T14:17:15.441Z,1.80
2023-01-21T14:20:15.324Z,1.80
2023-01-21T14:22:51.876Z,1.80
2023-01-21T14:25:34.084Z,1.80
2023-01-21T14:28:13.630Z,1.80
2023-01-21T14:31:10.685Z,1.80
2023-01-21T14:33:54.327Z,1.80
2023-01-21T14:36:40.692Z,1.80
2023-01-21T14:39:20.135Z,1.80
2023-01-21T14:41:55.109Z,1.80
2023-01-21T14:45:01.328Z,1.80
2023-01-21T14:47:32.749Z,1.80
2023-01-21T14:50:00.459Z,1.80
2023-01-21T14:52:45.117Z,1.80
2023-01-21T14:55:32.987Z,1.80
2023-01-21T14:58:02.066Z,1.80
2023-01-21T15:00:36.238Z,1.80
2023-01-21T15:03:30.282Z,1.80
2023-01-21T15:06:09.129Z,1.70
2023-01-21T15:08:46.239Z,1.80
2023-01-21T15:11:30.828Z,1.80
2023-01-21T15:14:41.942Z,1.80
2023-01-21T15:17:53.319Z,1.80
2023-01-21T15:20:42.630Z,1.80
2023-01-21T15:23:32.087Z,1.80
2023-01-21T15:26:20.151Z,1.80
2023-01-21T15:28:51.031Z,1.80
2023-01-21T15:31:21.635Z,1.80
2023-01-21T15:33:56.749Z,1.80
2023-01-21T15:36:35.696Z,1.80
2023-01-21T15:39:23.508Z,1.80
2023-01-21T15:42:26.677Z,1.80
2023-01-21T15:45:24.204Z,1.80
2023-01-21T15:48:30.126Z,1.70
2023-01-21T15:51:33.173Z,1.80
2023-01-21T15:54:25.155Z,1.70
2023-01-21T15:57:01.737Z,1.80
2023-01-21T15:59:46.705Z,1.70
2023-01-21T16:02:20.533Z,1.70
2023-01-21T16:05:28.979Z,1.80
2023-01-21T16:08:18.410Z,1.80
2023-01-21T16:11:22.573Z,1.80
2023-01-21T16:14:40.165Z,1.80
2023-01-21T16:17:19.695Z,1.80
2023-01-21T16:19:53.837Z,1.80
2023-01-21T16:22:28.146Z,1.80
2023-01-21T16:25:08.359Z,1.80
2023-01-21T16:27:36.628Z,1.90
2023-01-21T16:30:14.865Z,1.80
2023-01-21T16:32:42.977Z,1.80
2023-01-21T16:35:10.997Z,1.80
2023-01-21T16:37:43.511Z,1.80
2023-01-21T16:40:30.384Z,1.80
2023-01-21T16:43:23.025Z,1.80
2023-01-21T16:45:57.256Z,1.80
2023-01-21T16:48:34.193Z,1.80
2023-01-21T16:51:02.966Z,1.80
2023-01-21T16:53:31.687Z,1.80
2023-01-21T16:56:00.823Z,1.80
2023-01-21T16:58:35.682Z,1.80
2023-01-21T17:01:08.858Z,1.80
2023-01-21T17:03:36.806Z,1.80
2023-01-21T17:06:27.708Z,1.80
2023-01-21T17:09:06.108Z,1.80
2023-01-21T17:11:36.741Z,1.80
2023-01-21T17:14:11.408Z,1.70
2023-01-21T17:16:41.821Z,1.80
2023-01-21T17:19:28.164Z,1.80
2023-01-21T17:22:03.816Z,1.80
2023-01-21T17:24:41.598Z,1.70
2023-01-21T17:27:16.126Z,1.70
2023-01-21T17:29:47.131Z,1.80
2023-01-21T17:32:28.365Z,1.70
2023-01-21T17:35:19.027Z,1.70
2023-01-21T17:38:03.970Z,1.80
2023-01-21T17:40:45.689Z,1.80
2023-01-21T17:43:26.582Z,1.70
2023-01-21T17:45:58.592Z,1.70
2023-01-21T17:48:36.772Z,1.70
2023-01-21T17:51:16.600Z,1.70
2023-01-21T17:54:04.076Z,1.70
2023-01-21T17:56:35.361Z,1.70
2023-01-21T17:59:38.411Z,1.70
2023-01-21T18:02:12.804Z,1.60
2023-01-21T18:04:42.990Z,1.60
2023-01-21T18:07:32.857Z,1.60
2023-01-21T18:10:02.800Z,1.70
2023-01-21T18:12:31.425Z,1.70
2023-01-21T18:15:00.102Z,1.70
2023-01-21T18:17:28.592Z,1.70
2023-01-21T18:19:57.932Z,1.70
2023-01-21T18:22:31.926Z,1.70
2023-01-21T18:25:02.979Z,1.60
2023-01-21T18:27:31.496Z,1.60
2023-01-21T18:30:02.444Z,1.70
2023-01-21T18:32:31.780Z,1.70
2023-01-21T18:35:01.583Z,1.70
2023-01-21T18:37:30.091Z,1.60
2023-01-21T18:39:58.028Z,1.60
2023-01-21T18:42:27.150Z,1.60
2023-01-21T18:44:55.642Z,1.70
2023-01-21T18:47:23.487Z,1.70
2023-01-21T18:49:51.667Z,1.70
2023-01-21T18:52:22.553Z,1.60
2023-01-21T18:54:50.723Z,1.60
2023-01-21T18:57:23.156Z,1.60
2023-01-21T18:59:50.840Z,1.60
2023-01-21T19:02:21.128Z,1.60
2023-01-21T19:04:52.824Z,1.60
2023-01-21T19:07:23.923Z,1.60
2023-01-21T19:09:52.619Z,1.60
2023-01-21T19:12:27.958Z,1.50
2023-01-21T19:14:56.165Z,1.50
2023-01-21T19:17:27.643Z,1.50
2023-01-21T19:19:56.913Z,1.50
2023-01-21T19:22:25.431Z,1.40
2023-01-21T19:24:53.936Z,1.40
2023-01-21T19:27:31.106Z,1.50
2023-01-21T19:29:59.467Z,1.40
2023-01-21T19:32:35.510Z,1.40
2023-01-21T19:35:03.948Z,1.40
2023-01-21T19:37:32.737Z,1.40
2023-01-21T19:40:00.862Z,1.30
2023-01-21T19:42:30.082Z,1.30
2023-01-21T19:44:59.810Z,1.30
2023-01-21T19:47:30.635Z,1.30
2023-01-21T19:50:00.186Z,1.30
2023-01-21T19:52:28.733Z,1.30
2023-01-21T19:54:57.076Z,1.30
2023-01-21T19:57:26.279Z,1.30
2023-01-21T19:59:54.780Z,1.20
2023-01-21T20:02:23.289Z,1.20
2023-01-21T20:04:52.329Z,1.20
2023-01-21T20:07:22.537Z,1.20
2023-01-21T20:09:51.244Z,1.20
2023-01-21T20:12:19.873Z,1.20
2023-01-21T20:14:49.921Z,1.20
2023-01-21T20:17:18.372Z,1.20
2023-01-21T20:19:47.415Z,1.20
2023-01-21T20:22:18.246Z,1.30
2023-01-21T20:24:46.778Z,1.20
2023-01-21T20:27:15.607Z,1.20
2023-01-21T20:29:55.720Z,1.20
2023-01-21T20:32:30.685Z,1.20
2023-01-21T20:34:58.773Z,1.20
2023-01-21T20:37:27.185Z,1.20
2023-01-21T20:39:55.634Z,1.20
2023-01-21T20:42:23.640Z,1.20
2023-01-21T20:44:52.159Z,1.20
2023-01-21T20:47:37.686Z,1.20
2023-01-21T20:50:31.782Z,1.20
2023-01-21T20:52:59.977Z,1.20
2023-01-21T20:55:29.529Z,1.10
2023-01-21T20:58:00.005Z,1.10
2023-01-21T21:00:33.197Z,1.10
2023-01-21T21:03:01.326Z,1.10
2023-01-21T21:05:29.793Z,1.10
2023-01-21T21:07:57.654Z,1.00
2023-01-21T21:10:31.941Z,1.00
2023-01-21T21:13:00.109Z,1.00
2023-01-21T21:15:29.966Z,1.10
2023-01-21T21:17:59.312Z,1.00
2023-01-21T21:20:33.806Z,1.00
2023-01-21T21:23:02.686Z,1.00
2023-01-21T21:25:35.226Z,1.00
2023-01-21T21:28:03.109Z,1.00
2023-01-21T21:30:33.904Z,1.10
2023-01-21T21:33:02.196Z,1.00
2023-01-21T21:35:34.278Z,1.00
2023-01-21T21:38:26.264Z,1.00
2023-01-21T21:40:53.890Z,1.10
2023-01-21T21:43:36.041Z,1.10
2023-01-21T21:46:28.140Z,1.10
2023-01-21T21:48:56.190Z,1.10
2023-01-21T21:51:26.927Z,1.10
2023-01-21T21:53:54.871Z,1.10
2023-01-21T21:56:24.217Z,1.10
2023-01-21T21:58:52.250Z,1.10
2023-01-21T22:01:24.143Z,1.10
2023-01-21T22:03:52.404Z,1.10
2023-01-21T22:06:22.428Z,1.10
2023-01-21T22:08:50.189Z,1.10
2023-01-21T22:11:22.511Z,1.10
2023-01-21T22:13:54.347Z,1.10
2023-01-21T22:16:26.324Z,1.10
2023-01-21T22:18:54.743Z,1.20
2023-01-21T22:21:25.557Z,1.10
2023-01-21T22:23:53.322Z,1.10
2023-01-21T22:26:23.662Z,1.10
2023-01-21T22:28:51.448Z,1.10
2023-01-21T22:31:31.681Z,1.10
2023-01-21T22:33:59.724Z,1.10
2023-01-21T22:36:29.845Z,1.10
2023-01-21T22:38:57.506Z,1.10
2023-01-21T22:41:25.593Z,1.20
2023-01-21T22:43:53.989Z,1.10
2023-01-21T22:46:25.301Z,1.20
2023-01-21T22:48:54.297Z,1.10
2023-01-21T22:51:23.194Z,1.20
2023-01-21T22:53:51.832Z,1.10
2023-01-21T22:56:31.500Z,1.10
2023-01-21T22:59:03.033Z,1.10
2023-01-21T23:01:31.654Z,1.20
2023-01-21T23:04:00.244Z,1.10
2023-01-21T23:06:28.198Z,1.10
2023-01-21T23:08:55.823Z,1.20
2023-01-21T23:11:23.036Z,1.20
2023-01-21T23:13:50.288Z,1.20
2023-01-21T23:16:19.450Z,1.20
2023-01-21T23:18:47.268Z,1.20
2023-01-21T23:21:21.427Z,1.20
2023-01-21T23:23:50.062Z,1.20
2023-01-21T23:26:22.661Z,1.20
2023-01-21T23:28:55.912Z,1.20
2023-01-21T23:31:24.546Z,1.20
2023-01-21T23:33:54.323Z,1.20
2023-01-21T23:36:21.630Z,1.20
2023-01-21T23:38:48.815Z,1.20
2023-01-21T23:41:17.256Z,1.20
2023-01-21T23:43:44.537Z,1.20
2023-01-21T23:46:19.948Z,1.20
2023-01-21T23:48:47.606Z,1.20
2023-01-21T23:51:18.883Z,1.20
2023-01-21T23:53:50.673Z,1.20
2023-01-21T23:56:23.476Z,1.20
2023-01-21T23:58:51.629Z,1.20
